Time;durP1;ratioP1;P1;durP2;ratioP2;P2;SDS_P1;SDS_P2;PMS_P1;PMS_P2;Temp;Humidity;BMP_temperature;BMP_pressure;BME280_temperature;BME280_humidity;BME280_pressure;Samples;Min_cycle;Max_cycle;Signal;HPM_P1;HPM_P2
2022/05/31 00:01:02;;;;;;;;;;;;;;;30.31;21.17;100180.75;4423882;32;20001;-70
2022/05/31 00:03:27;;;;;;;;;;;;;;;30.41;21.15;100181.62;4423055;32;20284;-70
2022/05/31 00:05:53;;;;;;;;;;;;;;;30.19;21.39;100180.41;4420896;32;20005;-70
2022/05/31 00:08:19;;;;;;;;;;;;;;;30.27;21.21;100174.56;4422094;32;19990;-70
2022/05/31 00:10:44;;;;;;;;;;;;;;;30.20;21.10;100170.34;4422528;32;19953;-70
2022/05/31 00:13:10;;;;;;;;;;;;;;;30.24;21.20;100176.50;4422446;32;20098;-70
2022/05/31 00:15:36;;;;;;;;;;;;;;;30.14;21.27;100177.69;4419613;32;20012;-70
2022/05/31 00:18:02;;;;;;;;;;;;;;;30.42;20.84;100183.94;4418402;32;19965;-70
2022/05/31 00:20:28;;;;;;;;;;;;;;;30.31;20.98;100184.41;4419839;32;20013;-70
2022/05/31 00:22:53;;;;;;;;;;;;;;;30.22;21.06;100178.47;4423170;32;19988;-70
2022/05/31 00:25:19;;;;;;;;;;;;;;;30.40;20.98;100180.09;4423139;32;20012;-70
2022/05/31 00:27:45;;;;;;;;;;;;;;;30.23;21.92;100180.00;4417405;32;19985;-70
2022/05/31 00:30:11;;;;;;;;;;;;;;;29.97;22.34;100181.25;4418591;32;20338;-70
2022/05/31 00:32:39;;;;;;;;;;;;;;;29.98;22.35;100174.12;4418591;32;20011;-70
2022/05/31 00:35:08;;;;;;;;;;;;;;;29.96;22.28;100168.12;4415631;32;19953;-70
2022/05/31 00:37:34;;;;;;;;;;;;;;;30.16;22.02;100169.19;4419701;32;20145;-70
2022/05/31 00:40:00;;;;;;;;;;;;;;;30.00;22.17;100171.38;4418054;32;20558;-70
2022/05/31 00:42:26;;;;;;;;;;;;;;;29.93;22.17;100166.41;4420611;32;20077;-70
2022/05/31 00:44:51;;;;;;;;;;;;;;;29.80;22.41;100172.47;4418896;32;19998;-70
2022/05/31 00:47:21;;;;;;;;;;;;;;;29.53;22.66;100167.69;4416331;32;19969;-70
2022/05/31 00:49:49;;;;;;;;;;;;;;;29.62;22.65;100170.78;4420202;32;19963;-70
2022/05/31 00:52:17;;;;;;;;;;;;;;;29.54;22.67;100161.28;4419905;32;19980;-70
2022/05/31 00:54:48;;;;;;;;;;;;;;;29.84;22.37;100174.94;4422463;32;20013;-70
2022/05/31 00:57:13;;;;;;;;;;;;;;;29.63;22.69;100162.87;4417752;32;20366;-70
2022/05/31 00:59:43;;;;;;;;;;;;;;;29.69;22.47;100167.06;4417378;32;20340;-70
2022/05/31 01:02:09;;;;;;;;;;;;;;;29.77;22.58;100164.16;4420592;32;20370;-70
2022/05/31 01:04:38;;;;;;;;;;;;;;;29.62;22.58;100161.31;4425395;32;19958;-70
2022/05/31 01:07:05;;;;;;;;;;;;;;;29.61;22.53;100166.31;4420007;32;20008;-70
2022/05/31 01:09:31;;;;;;;;;;;;;;;29.43;22.78;100170.44;4418936;32;20347;-70
2022/05/31 01:11:57;;;;;;;;;;;;;;;29.57;22.70;100160.13;4419206;32;20027;-70
2022/05/31 01:14:22;;;;;;;;;;;;;;;29.62;22.57;100162.09;4420591;32;20307;-70
2022/05/31 01:16:52;;;;;;;;;;;;;;;29.66;22.71;100164.59;4417221;32;20320;-70
2022/05/31 01:19:55;;;;;;;;;;;;;;;29.81;22.66;100170.31;4417769;32;20001;-70
2022/05/31 01:22:03;;;;;;;;;;;;;;;29.94;22.59;100167.19;4421691;32;20676;-70
2022/05/31 01:24:31;;;;;;;;;;;;;;;29.90;22.59;100172.59;4418662;32;19949;-70
2022/05/31 01:27:04;;;;;;;;;;;;;;;29.79;22.65;100162.19;4421015;32;19993;-70
2022/05/31 01:29:32;;;;;;;;;;;;;;;29.99;22.41;100161.16;4422138;32;20047;-70
2022/05/31 01:32:00;;;;;;;;;;;;;;;29.89;22.36;100156.56;4414442;32;19953;-70
2022/05/31 01:34:45;;;;;;;;;;;;;;;29.85;22.34;100170.69;4418986;32;20038;-70
2022/05/31 01:37:10;;;;;;;;;;;;;;;29.84;22.32;100163.34;4417914;32;19953;-70
2022/05/31 01:44:54;;;;;;;;;;;;;;;29.93;22.03;100156.91;3952895;32;15724595;-70
2022/05/31 01:47:19;;;;;;;;;;;;;;;29.93;22.03;100156.91;4437765;32;20370;-70
2022/05/31 01:49:48;;;;;;;;;;;;;;;29.50;22.37;100151.44;4437289;32;19962;-70
2022/05/31 01:52:14;;;;;;;;;;;;;;;29.56;22.39;100158.59;4436819;32;19984;-70
2022/05/31 01:54:39;;;;;;;;;;;;;;;29.64;22.37;100153.56;4430953;32;20019;-70
2022/05/31 01:57:06;;;;;;;;;;;;;;;29.70;22.29;100151.22;4433608;32;20476;-70
2022/05/31 01:59:36;;;;;;;;;;;;;;;29.47;22.58;100150.50;4435715;32;20571;-70
2022/05/31 02:02:02;;;;;;;;;;;;;;;29.54;22.53;100151.84;4436428;32;20388;-70
2022/05/31 02:04:28;;;;;;;;;;;;;;;29.49;22.55;100155.72;4434697;32;19945;-70
2022/05/31 02:07:25;;;;;;;;;;;;;;;29.48;22.53;100151.28;4433646;32;20011;-70
2022/05/31 02:09:40;;;;;;;;;;;;;;;29.43;22.60;100149.34;4435952;32;19979;-70
2022/05/31 02:12:06;;;;;;;;;;;;;;;29.61;22.35;100151.03;4436503;32;19957;-70
2022/05/31 02:14:32;;;;;;;;;;;;;;;29.09;22.88;100152.72;4436589;32;19984;-70
2022/05/31 02:16:58;;;;;;;;;;;;;;;29.50;22.50;100151.44;4436875;32;20011;-70
2022/05/31 02:19:25;;;;;;;;;;;;;;;29.47;22.56;100155.53;4431982;32;20421;-70
2022/05/31 02:21:53;;;;;;;;;;;;;;;29.63;22.31;100154.91;4432377;32;20012;-70
2022/05/31 02:24:19;;;;;;;;;;;;;;;29.60;22.32;100156.06;4435398;32;19957;-70
2022/05/31 02:26:45;;;;;;;;;;;;;;;29.61;22.36;100151.81;4434964;32;19967;-70
2022/05/31 02:29:12;;;;;;;;;;;;;;;29.79;22.21;100158.53;4435188;32;20009;-70
2022/05/31 02:31:39;;;;;;;;;;;;;;;29.71;22.25;100154.88;4434887;32;20465;-70
2022/05/31 02:34:05;;;;;;;;;;;;;;;29.92;22.07;100155.37;4434047;32;20041;-70
2022/05/31 02:36:31;;;;;;;;;;;;;;;29.66;22.31;100153.00;4436051;32;19953;-70
2022/05/31 02:38:56;;;;;;;;;;;;;;;29.87;21.95;100144.75;4433057;32;19968;-69
2022/05/31 02:41:22;;;;;;;;;;;;;;;29.98;22.01;100150.91;4438184;32;19968;-70
2022/05/31 02:43:48;;;;;;;;;;;;;;;29.99;21.96;100149.53;4424463;32;20367;-70
2022/05/31 02:46:14;;;;;;;;;;;;;;;29.47;22.72;100152.63;4432495;32;20084;-70
2022/05/31 02:48:40;;;;;;;;;;;;;;;29.28;22.65;100147.28;4421170;32;19973;-69
2022/05/31 02:51:06;;;;;;;;;;;;;;;29.15;23.00;100144.59;4436181;32;20406;-69
2022/05/31 02:53:32;;;;;;;;;;;;;;;29.16;22.92;100145.34;4419461;32;20358;-69
2022/05/31 02:55:58;;;;;;;;;;;;;;;29.22;22.96;100143.03;4424832;32;19953;-69
2022/05/31 02:58:25;;;;;;;;;;;;;;;29.34;22.89;100144.16;4423181;32;20038;-69
2022/05/31 03:00:52;;;;;;;;;;;;;;;29.25;22.88;100142.66;4422708;32;19983;-69
2022/05/31 03:03:17;;;;;;;;;;;;;;;29.45;22.57;100135.06;4423623;32;19953;-68
2022/05/31 03:05:43;;;;;;;;;;;;;;;29.59;22.44;100136.34;4424552;32;20015;-69
2022/05/31 03:08:09;;;;;;;;;;;;;;;29.28;22.78;100132.78;4422288;32;20008;-69
2022/05/31 03:10:38;;;;;;;;;;;;;;;29.42;22.74;100136.97;4426631;32;20028;-69
2022/05/31 03:13:04;;;;;;;;;;;;;;;29.62;22.49;100129.41;4424970;32;20219;-69
2022/05/31 03:15:33;;;;;;;;;;;;;;;29.69;22.44;100128.63;4425388;32;20288;-69
2022/05/31 03:18:02;;;;;;;;;;;;;;;29.75;22.54;100129.94;4421462;32;19953;-68
2022/05/31 03:20:31;;;;;;;;;;;;;;;29.74;22.51;100128.41;4423685;32;20390;-69
2022/05/31 03:23:00;;;;;;;;;;;;;;;29.69;22.59;100126.47;4423404;32;20409;-69
2022/05/31 03:25:27;;;;;;;;;;;;;;;29.90;22.40;100123.28;4421857;32;19992;-69
2022/05/31 03:27:54;;;;;;;;;;;;;;;29.80;22.46;100120.25;4422537;32;19992;-69
2022/05/31 03:30:20;;;;;;;;;;;;;;;29.54;22.96;100119.94;4425410;32;20008;-69
2022/05/31 03:32:45;;;;;;;;;;;;;;;29.78;22.52;100119.28;4422907;32;20038;-69
2022/05/31 03:35:11;;;;;;;;;;;;;;;29.64;22.68;100118.78;4421796;32;20392;-68
2022/05/31 03:37:38;;;;;;;;;;;;;;;29.51;22.66;100127.66;4419660;32;19957;-69
2022/05/31 03:40:05;;;;;;;;;;;;;;;29.64;22.54;100124.59;4423698;32;20022;-70
2022/05/31 03:42:30;;;;;;;;;;;;;;;29.85;22.38;100127.19;4422826;32;20347;-69
2022/05/31 03:44:56;;;;;;;;;;;;;;;29.84;22.45;100119.81;4422455;32;19989;-69
2022/05/31 03:47:21;;;;;;;;;;;;;;;29.74;22.45;100116.00;4422826;32;19985;-68
2022/05/31 03:49:47;;;;;;;;;;;;;;;29.78;22.55;100120.06;4423722;32;19967;-68
2022/05/31 03:52:13;;;;;;;;;;;;;;;29.85;22.42;100116.34;4423530;32;20500;-69
2022/05/31 03:54:39;;;;;;;;;;;;;;;30.02;22.41;100124.38;4426008;32;20350;-69
2022/05/31 03:57:05;;;;;;;;;;;;;;;29.95;22.19;100122.28;4422843;32;20428;-69
2022/05/31 03:59:35;;;;;;;;;;;;;;;29.88;22.30;100123.09;4426209;32;20001;-69
2022/05/31 04:02:01;;;;;;;;;;;;;;;29.95;22.44;100119.38;4421909;32;19953;-69
2022/05/31 04:04:27;;;;;;;;;;;;;;;30.02;22.61;100113.53;4424310;32;20032;-69
2022/05/31 04:07:06;;;;;;;;;;;;;;;29.74;23.05;100105.19;4422508;32;19953;-69
2022/05/31 04:09:32;;;;;;;;;;;;;;;29.83;23.01;100112.50;4425569;32;19988;-69
2022/05/31 04:11:59;;;;;;;;;;;;;;;29.74;23.00;100113.91;4421695;32;20015;-69
2022/05/31 04:14:25;;;;;;;;;;;;;;;29.86;23.31;100114.22;4424678;32;20009;-69
2022/05/31 04:17:12;;;;;;;;;;;;;;;29.91;22.80;100108.19;4422121;32;20041;-69
2022/05/31 04:19:38;;;;;;;;;;;;;;;30.07;22.71;100109.62;4425352;32;20283;-69
2022/05/31 04:22:05;;;;;;;;;;;;;;;30.02;23.19;100107.75;4419942;32;20027;-69
2022/05/31 04:24:32;;;;;;;;;;;;;;;30.16;22.90;100114.78;4423946;32;19953;-69
2022/05/31 04:27:02;;;;;;;;;;;;;;;30.16;22.92;100116.94;4425095;32;20392;-69
2022/05/31 04:29:51;;;;;;;;;;;;;;;30.12;22.91;100111.53;4423259;32;19973;-69
2022/05/31 04:32:37;;;;;;;;;;;;;;;30.27;22.70;100122.31;4420971;32;19950;-69
2022/05/31 04:35:03;;;;;;;;;;;;;;;30.18;22.89;100111.28;4423394;32;19965;-69
2022/05/31 04:37:55;;;;;;;;;;;;;;;30.21;23.00;100119.63;4417678;32;19988;-69
2022/05/31 04:40:26;;;;;;;;;;;;;;;30.16;23.40;100114.78;4421797;32;20264;-69
2022/05/31 04:43:03;;;;;;;;;;;;;;;30.27;23.55;100116.50;4418457;32;20373;-69
2022/05/31 04:45:30;;;;;;;;;;;;;;;30.18;22.93;100115.00;4425190;32;19954;-69
2022/05/31 04:48:16;;;;;;;;;;;;;;;30.29;23.22;100120.38;4421206;32;19957;-69
2022/05/31 04:50:42;;;;;;;;;;;;;;;30.16;23.28;100122.75;4420925;32;19992;-69
2022/05/31 04:53:09;;;;;;;;;;;;;;;30.35;23.12;100123.03;4420933;32;20197;-69
2022/05/31 04:56:01;;;;;;;;;;;;;;;30.29;23.16;100120.38;4420390;32;19983;-69
2022/05/31 04:58:27;;;;;;;;;;;;;;;30.32;23.47;100127.12;4424127;32;20030;-69
2022/05/31 05:01:12;;;;;;;;;;;;;;;30.38;23.14;100127.66;4423145;32;20295;-69
2022/05/31 05:04:06;;;;;;;;;;;;;;;30.22;23.32;100124.06;4420103;32;19989;-69
2022/05/31 05:06:33;;;;;;;;;;;;;;;30.35;23.44;100123.81;4424294;32;20018;-69
2022/05/31 05:08:59;;;;;;;;;;;;;;;30.39;23.38;100129.19;4423982;32;19984;-69
2022/05/31 05:11:26;;;;;;;;;;;;;;;30.54;23.68;100124.03;4409379;32;20027;-69
2022/05/31 05:13:54;;;;;;;;;;;;;;;30.65;23.21;100134.41;4419041;32;20260;-69
2022/05/31 05:16:21;;;;;;;;;;;;;;;30.82;22.63;100137.38;4423643;32;20458;-69
2022/05/31 05:19:00;;;;;;;;;;;;;;;30.84;22.57;100140.47;4420594;32;20343;-69
2022/05/31 05:21:31;;;;;;;;;;;;;;;30.91;22.52;100133.81;4420372;32;19968;-69
2022/05/31 05:24:21;;;;;;;;;;;;;;;30.96;22.38;100137.84;4421783;32;19972;-69
2022/05/31 05:26:47;;;;;;;;;;;;;;;30.87;22.31;100132.69;4422091;32;20000;-69
2022/05/31 05:31:58;;;;;;;;;;;;;;;30.77;22.33;100135.50;4422267;32;19954;-69
2022/05/31 05:34:53;;;;;;;;;;;;;;;31.29;21.92;100139.28;4416832;32;20344;-69
2022/05/31 05:37:20;;;;;;;;;;;;;;;31.28;21.95;100137.72;4421178;32;19958;-69
2022/05/31 05:40:01;;;;;;;;;;;;;;;31.13;22.16;100138.63;4422394;32;19988;-69
2022/05/31 05:42:29;;;;;;;;;;;;;;;31.11;22.51;100138.47;4420797;32;19968;-69
2022/05/31 05:45:12;;;;;;;;;;;;;;;31.12;22.01;100137.09;4422697;32;20416;-69
2022/05/31 05:47:45;;;;;;;;;;;;;;;30.97;21.74;100131.44;4424555;32;20003;-69
2022/05/31 05:50:15;;;;;;;;;;;;;;;31.08;21.54;100133.84;4423014;32;19993;-69
2022/05/31 05:52:44;;;;;;;;;;;;;;;30.58;22.20;100135.22;4409311;32;20574;-69
2022/05/31 05:55:12;;;;;;;;;;;;;;;30.85;21.94;100144.91;4422297;32;20030;-69
2022/05/31 05:57:37;;;;;;;;;;;;;;;30.87;22.05;100135.59;4423108;32;20217;-69
2022/05/31 06:00:12;;;;;;;;;;;;;;;30.76;22.96;100137.62;4422027;32;20016;-69
2022/05/31 06:02:39;;;;;;;;;;;;;;;30.86;22.86;100136.97;4422565;32;20352;-69
2022/05/31 06:05:08;;;;;;;;;;;;;;;30.72;23.25;100136.47;4421453;32;20023;-69
2022/05/31 06:07:46;;;;;;;;;;;;;;;30.55;24.25;100134.28;4420348;32;19975;-69
2022/05/31 06:10:21;;;;;;;;;;;;;;;30.60;24.19;100129.59;4422665;32;20040;-68
2022/05/31 06:13:07;;;;;;;;;;;;;;;30.50;24.94;100132.37;4421368;32;20004;-68
2022/05/31 06:15:35;;;;;;;;;;;;;;;30.45;25.05;100132.63;4407531;32;19993;-68
2022/05/31 06:18:27;;;;;;;;;;;;;;;29.61;24.31;100133.62;4421192;32;19954;-68
2022/05/31 06:20:58;;;;;;;;;;;;;;;29.55;25.30;100136.75;4422621;32;19984;-68
2022/05/31 06:23:24;;;;;;;;;;;;;;;29.86;26.48;100134.53;4419941;32;19949;-68
2022/05/31 06:25:52;;;;;;;;;;;;;;;30.00;25.55;100139.47;4410239;32;20040;-68
2022/05/31 06:28:18;;;;;;;;;;;;;;;30.07;25.55;100138.66;4419395;32;19968;-68
2022/05/31 06:30:46;;;;;;;;;;;;;;;30.16;25.48;100149.63;4426333;32;19961;-68
2022/05/31 06:33:11;;;;;;;;;;;;;;;30.18;25.32;100146.13;4421732;32;19992;-68
2022/05/31 06:35:39;;;;;;;;;;;;;;;30.16;25.39;100149.63;4426226;32;20001;-68
2022/05/31 06:38:05;;;;;;;;;;;;;;;29.85;25.23;100139.53;4424868;32;19988;-68
2022/05/31 06:40:34;;;;;;;;;;;;;;;29.96;25.42;100144.91;4424952;32;20004;-68
2022/05/31 06:43:00;;;;;;;;;;;;;;;29.67;25.91;100146.59;4424516;32;20407;-68
2022/05/31 06:45:27;;;;;;;;;;;;;;;29.55;25.64;100138.87;4424681;32;19954;-68
2022/05/31 06:48:06;;;;;;;;;;;;;;;29.51;25.53;100145.06;4426887;32;20067;-68
2022/05/31 06:50:52;;;;;;;;;;;;;;;29.33;25.48;100151.31;4420386;32;19957;-68
2022/05/31 06:59:02;;;;;;;;;;;;;;;29.08;25.98;100153.31;3966776;31;15721755;-68
2022/05/31 07:01:31;;;;;;;;;;;;;;;29.08;25.98;100153.31;4443739;32;20644;-68
2022/05/31 07:03:59;;;;;;;;;;;;;;;28.87;26.95;100162.94;4439172;32;19954;-68
2022/05/31 07:06:27;;;;;;;;;;;;;;;28.64;26.71;100156.41;4443181;32;19993;-68
2022/05/31 07:08:52;;;;;;;;;;;;;;;28.75;27.29;100155.25;4445253;32;19945;-68
2022/05/31 07:11:18;;;;;;;;;;;;;;;28.73;27.43;100164.50;4444016;32;20093;-69
2022/05/31 07:13:43;;;;;;;;;;;;;;;28.67;27.27;100166.03;4438784;32;20339;-69
2022/05/31 07:16:09;;;;;;;;;;;;;;;28.71;27.47;100173.00;4440645;32;20343;-70
2022/05/31 07:18:44;;;;;;;;;;;;;;;28.91;27.50;100159.66;4439599;32;21108;-70
2022/05/31 07:21:12;;;;;;;;;;;;;;;28.99;27.54;100164.09;4440851;32;20074;-70
2022/05/31 07:23:40;;;;;;;;;;;;;;;29.19;27.19;100170.28;4444266;32;20035;-70
2022/05/31 07:26:07;;;;;;;;;;;;;;;28.84;26.96;100169.16;4442967;32;20429;-70
2022/05/31 07:28:36;;;;;;;;;;;;;;;28.89;27.03;100171.06;4442773;32;19968;-70
2022/05/31 07:31:03;;;;;;;;;;;;;;;29.09;27.40;100164.31;4440845;32;20236;-70
2022/05/31 07:33:35;;;;;;;;;;;;;;;29.26;26.86;100163.72;4439844;32;19971;-70
2022/05/31 07:36:03;;;;;;;;;;;;;;;29.31;26.60;100166.41;4443273;32;20008;-70
2022/05/31 07:38:31;;;;;;;;;;;;;;;28.92;26.62;100164.88;4441144;32;19949;-70
2022/05/31 07:41:00;;;;;;;;;;;;;;;29.03;26.61;100169.50;4441611;32;20013;-70
2022/05/31 07:43:28;;;;;;;;;;;;;;;29.26;27.33;100166.63;4442209;32;20215;-70
2022/05/31 07:46:13;;;;;;;;;;;;;;;29.38;27.67;100167.72;4442306;32;20064;-70
2022/05/31 07:49:03;;;;;;;;;;;;;;;29.28;26.37;100163.88;4431022;32;20052;-70
2022/05/31 07:51:29;;;;;;;;;;;;;;;29.51;26.54;100170.41;4439461;32;19994;-71
2022/05/31 07:53:56;;;;;;;;;;;;;;;29.57;26.38;100165.94;4443707;32;19971;-70
2022/05/31 07:56:22;;;;;;;;;;;;;;;29.82;26.19;100163.94;4443340;32;19961;-70
2022/05/31 07:58:50;;;;;;;;;;;;;;;29.55;25.68;100165.75;4442793;32;20436;-70
2022/05/31 08:01:19;;;;;;;;;;;;;;;29.94;26.10;100167.19;4443105;32;20388;-70
2022/05/31 08:03:45;;;;;;;;;;;;;;;29.82;25.36;100172.63;4444274;32;19968;-70
2022/05/31 08:06:11;;;;;;;;;;;;;;;30.34;25.53;100167.94;4442143;32;20005;-70
2022/05/31 08:08:40;;;;;;;;;;;;;;;30.68;25.38;100165.19;4437288;32;20001;-70
2022/05/31 08:11:20;;;;;;;;;;;;;;;30.67;24.93;100163.63;4433784;32;19987;-70
2022/05/31 08:13:47;;;;;;;;;;;;;;;31.11;24.80;100167.53;4430027;32;20318;-70
2022/05/31 08:16:24;;;;;;;;;;;;;;;31.03;24.39;100169.75;4430574;32;20320;-70
2022/05/31 08:18:51;;;;;;;;;;;;;;;31.15;23.98;100178.72;4432991;32;19977;-70
2022/05/31 08:21:35;;;;;;;;;;;;;;;31.04;23.62;100170.53;4432259;32;19989;-70
2022/05/31 08:24:04;;;;;;;;;;;;;;;31.07;23.66;100175.91;4432399;32;20367;-69
2022/05/31 08:26:37;;;;;;;;;;;;;;;31.14;23.84;100172.16;4431048;32;19979;-70
2022/05/31 08:29:06;;;;;;;;;;;;;;;32.11;22.94;100175.31;4431853;32;19996;-69
2022/05/31 08:31:36;;;;;;;;;;;;;;;31.85;23.88;100170.25;4427731;32;19988;-68
2022/05/31 08:34:06;;;;;;;;;;;;;;;32.34;23.83;100167.81;4431493;32;19972;-68
2022/05/31 08:36:33;;;;;;;;;;;;;;;32.72;22.25;100167.25;4434122;32;20946;-68
2022/05/31 08:38:59;;;;;;;;;;;;;;;32.65;21.66;100163.06;4435805;32;19983;-69
2022/05/31 08:41:46;;;;;;;;;;;;;;;32.25;21.74;100171.44;4427524;32;19988;-69
2022/05/31 08:44:22;;;;;;;;;;;;;;;32.95;21.15;100169.81;4430966;32;20560;-69
2022/05/31 08:47:31;;;;;;;;;;;;;;;33.13;20.66;100168.34;4431086;32;19949;-69
2022/05/31 09:01:06;;;;;;;;;;;;;;;35.24;19.94;100173.19;3953097;32;15722547;-70
2022/05/31 09:03:48;;;;;;;;;;;;;;;35.24;19.94;100173.19;4434383;32;20012;-71
2022/05/31 09:06:25;;;;;;;;;;;;;;;35.27;18.53;100169.78;4435992;32;20007;-70
2022/05/31 09:09:11;;;;;;;;;;;;;;;35.03;18.46;100171.00;4434053;32;20056;-71
2022/05/31 09:11:41;;;;;;;;;;;;;;;35.38;18.52;100166.22;4436204;32;20406;-71
2022/05/31 09:14:13;;;;;;;;;;;;;;;35.32;17.66;100168.69;4437103;32;20005;-71
2022/05/31 09:17:01;;;;;;;;;;;;;;;35.35;17.85;100169.63;4438124;32;19961;-71
2022/05/31 09:19:47;;;;;;;;;;;;;;;35.73;17.73;100155.44;4435216;32;19964;-71
2022/05/31 09:22:14;;;;;;;;;;;;;;;35.79;17.80;100164.62;4435590;32;19969;-71
2022/05/31 09:24:42;;;;;;;;;;;;;;;36.01;17.27;100166.13;4437174;32;20013;-71
2022/05/31 09:27:13;;;;;;;;;;;;;;;36.17;17.35;100170.13;4437601;32;19953;-71
2022/05/31 09:35:41;;;;;;;;;;;;;;;36.32;18.01;100166.00;3967898;31;15725090;-71
2022/05/31 09:41:06;;;;;;;;;;;;;;;36.10;17.23;100170.38;3963456;31;15722911;-71
2022/05/31 09:44:01;;;;;;;;;;;;;;;36.10;17.23;100170.38;4434153;32;20023;-71
2022/05/31 09:46:47;;;;;;;;;;;;;;;35.90;17.83;100163.97;4431932;32;19977;-71
2022/05/31 09:49:36;;;;;;;;;;;;;;;35.40;17.64;100157.56;4435593;32;19997;-71
2022/05/31 09:52:07;;;;;;;;;;;;;;;36.07;17.34;100159.91;4434786;32;19981;-71
2022/05/31 09:57:57;;;;;;;;;;;;;;;36.22;16.64;100151.44;4430363;32;20300;-71
2022/05/31 10:00:23;;;;;;;;;;;;;;;36.47;16.47;100155.97;4431757;32;19980;-71
2022/05/31 10:03:08;;;;;;;;;;;;;;;36.55;16.73;100153.53;4434461;32;20353;-71
2022/05/31 10:05:38;;;;;;;;;;;;;;;36.92;16.02;100158.19;4435251;32;19950;-71
2022/05/31 10:08:15;;;;;;;;;;;;;;;36.81;16.92;100152.31;4432530;32;20255;-71
2022/05/31 10:10:45;;;;;;;;;;;;;;;37.51;15.96;100154.53;4432315;32;20017;-71
2022/05/31 10:13:13;;;;;;;;;;;;;;;38.18;14.82;100153.38;4435017;32;20325;-71
2022/05/31 10:18:24;;;;;;;;;;;;;;;38.38;14.29;100148.66;3951822;32;15727617;-71
2022/05/31 10:20:52;;;;;;;;;;;;;;;37.91;14.84;100159.88;4435262;32;19971;-71
2022/05/31 10:23:29;;;;;;;;;;;;;;;36.72;15.75;100156.13;4435827;32;19968;-70
2022/05/31 10:25:57;;;;;;;;;;;;;;;34.84;17.15;100165.25;4436324;32;20389;-70
2022/05/31 10:28:30;;;;;;;;;;;;;;;34.33;17.93;100168.81;4435760;32;19993;-70
2022/05/31 10:31:17;;;;;;;;;;;;;;;32.72;19.17;100175.22;4432509;32;19988;-70
2022/05/31 10:33:49;;;;;;;;;;;;;;;30.83;20.59;100161.41;4436006;32;19957;-70
2022/05/31 10:36:17;;;;;;;;;;;;;;;31.12;20.42;100169.06;4434895;32;19961;-70
2022/05/31 10:38:46;;;;;;;;;;;;;;;31.67;20.27;100159.97;4433438;32;20068;-70
2022/05/31 10:41:20;;;;;;;;;;;;;;;32.47;19.83;100164.53;4434464;32;20196;-70
2022/05/31 10:43:50;;;;;;;;;;;;;;;32.24;19.88;100174.97;4434634;32;20008;-70
2022/05/31 10:46:36;;;;;;;;;;;;;;;32.28;20.16;100170.22;4434517;32;19950;-70
2022/05/31 10:49:04;;;;;;;;;;;;;;;32.99;19.13;100159.25;4437557;32;20306;-70
2022/05/31 10:59:29;;;;;;;;;;;;;;;36.17;15.13;100164.28;3952124;32;15721582;-70
2022/05/31 11:02:08;;;;;;;;;;;;;;;35.48;15.67;100160.28;4433399;32;20225;-70
2022/05/31 11:05:05;;;;;;;;;;;;;;;35.33;15.82;100161.47;4436914;32;20113;-70
2022/05/31 11:07:42;;;;;;;;;;;;;;;35.21;15.70;100169.37;4434753;32;19953;-70
2022/05/31 11:15:47;;;;;;;;;;;;;;;36.63;15.40;100162.87;3952771;32;15723589;-70
2022/05/31 11:21:21;;;;;;;;;;;;;;;37.56;13.96;100167.28;3952609;32;15723533;-70
2022/05/31 11:24:06;;;;;;;;;;;;;;;37.56;13.96;100167.28;4431776;32;19949;-70
2022/05/31 11:29:37;;;;;;;;;;;;;;;37.77;13.53;100184.72;3959126;32;15723676;-70
2022/05/31 11:38:03;;;;;;;;;;;;;;;38.34;13.25;100177.81;3952300;32;15723184;-70
2022/05/31 11:46:16;;;;;;;;;;;;;;;36.95;13.86;100173.72;3952943;32;15728626;-70
2022/05/31 11:56:50;;;;;;;;;;;;;;;37.50;14.65;100172.78;3952775;32;15722610;-70
2022/05/31 11:59:20;;;;;;;;;;;;;;;37.50;14.65;100172.78;4430506;32;20031;-70
2022/05/31 12:01:51;;;;;;;;;;;;;;;36.67;14.68;100157.25;4427953;32;20338;-70
2022/05/31 12:04:23;;;;;;;;;;;;;;;37.06;14.36;100170.03;4431459;32;20006;-70
2022/05/31 12:09:51;;;;;;;;;;;;;;;37.98;12.86;100158.06;3958252;31;15718621;-70
2022/05/31 12:12:42;;;;;;;;;;;;;;;37.98;12.86;100158.06;4442498;32;20008;-69
2022/05/31 12:15:14;;;;;;;;;;;;;;;36.89;13.06;100164.53;4439059;32;19989;-69
2022/05/31 12:20:24;;;;;;;;;;;;;;;36.87;13.59;100162.25;3953609;32;15728594;-70
2022/05/31 12:25:49;;;;;;;;;;;;;;;36.44;13.87;100172.63;3951162;32;15724568;-70
2022/05/31 12:28:29;;;;;;;;;;;;;;;36.44;13.87;100172.63;4431039;32;19949;-70
2022/05/31 12:30:59;;;;;;;;;;;;;;;36.13;13.98;100166.94;4435182;32;20018;-70
2022/05/31 12:44:16;;;;;;;;;;;;;;;31.12;21.02;100182.81;3943454;32;15722554;-70
2022/05/31 12:47:19;;;;;;;;;;;;;;;31.12;21.02;100182.81;4415026;32;20039;-69
2022/05/31 12:50:06;;;;;;;;;;;;;;;31.00;22.86;100190.50;4418212;32;19953;-68
2022/05/31 13:01:03;;;;;;;;;;;;;;;33.90;22.21;100185.31;3937877;32;15723614;-69
2022/05/31 13:06:38;;;;;;;;;;;;;;;34.36;20.46;100188.06;3961591;32;15723136;-69
2022/05/31 13:21:17;;;;;;;;;;;;;;;34.67;17.12;100185.19;4391356;32;19954;-70
2022/05/31 13:24:04;;;;;;;;;;;;;;;35.52;17.18;100178.88;4396434;32;20457;-69
2022/05/31 13:26:32;;;;;;;;;;;;;;;36.54;15.44;100187.19;4390689;32;20600;-70
2022/05/31 13:31:35;;;;;;;;;;;;;;;39.08;13.18;100187.19;3952048;32;15722413;-70
2022/05/31 13:34:08;;;;;;;;;;;;;;;39.08;13.18;100187.19;4431317;32;19966;-69
2022/05/31 13:36:56;;;;;;;;;;;;;;;38.66;13.00;100187.75;4428925;32;19953;-69
2022/05/31 13:39:26;;;;;;;;;;;;;;;38.63;12.88;100186.88;4432414;32;19964;-70
2022/05/31 13:41:55;;;;;;;;;;;;;;;38.58;13.19;100173.34;4429349;32;19994;-69
2022/05/31 13:44:28;;;;;;;;;;;;;;;37.53;14.08;100172.28;4431241;32;20295;-70
2022/05/31 13:46:57;;;;;;;;;;;;;;;39.03;12.56;100168.53;4427653;32;19972;-69
2022/05/31 13:49:30;;;;;;;;;;;;;;;37.63;13.32;100169.94;4430206;32;20006;-69
2022/05/31 13:51:58;;;;;;;;;;;;;;;38.11;13.08;100169.16;4427133;32;20001;-70
2022/05/31 13:54:41;;;;;;;;;;;;;;;38.50;12.59;100169.94;4429971;32;20004;-70
2022/05/31 13:57:29;;;;;;;;;;;;;;;38.90;12.10;100169.25;4424528;32;20400;-70
2022/05/31 14:00:36;;;;;;;;;;;;;;;38.59;12.62;100171.19;4420871;32;19964;-70
2022/05/31 14:03:31;;;;;;;;;;;;;;;39.49;12.26;100171.03;4425922;32;20305;-70
2022/05/31 14:06:12;;;;;;;;;;;;;;;41.56;11.08;100177.47;4430438;32;19965;-70
2022/05/31 14:08:57;;;;;;;;;;;;;;;42.91;10.27;100172.78;4429480;32;20027;-70
2022/05/31 14:11:54;;;;;;;;;;;;;;;43.31;10.30;100170.62;4416676;32;20100;-70
2022/05/31 14:14:44;;;;;;;;;;;;;;;43.65;10.23;100177.78;4430629;32;20025;-70
2022/05/31 14:17:41;;;;;;;;;;;;;;;42.37;10.94;100174.34;4422908;32;20004;-70
2022/05/31 14:20:28;;;;;;;;;;;;;;;41.87;10.23;100175.13;4425541;32;19949;-70
2022/05/31 14:25:54;;;;;;;;;;;;;;;45.74;8.85;100176.28;3964166;31;15719518;-71
2022/05/31 14:29:00;;;;;;;;;;;;;;;45.74;8.85;100176.28;4428916;32;19953;-69
2022/05/31 14:31:50;;;;;;;;;;;;;;;45.90;8.57;100171.53;4388939;32;20696;-70
2022/05/31 14:37:12;;;;;;;;;;;;;;;44.68;9.45;100179.81;3953233;32;15722620;-70
2022/05/31 14:40:03;;;;;;;;;;;;;;;44.68;9.45;100179.81;4392889;32;19959;-70
2022/05/31 14:42:57;;;;;;;;;;;;;;;43.33;9.70;100179.56;4392088;32;19976;-70
2022/05/31 14:45:46;;;;;;;;;;;;;;;43.69;9.71;100177.94;4394380;32;19942;-70
2022/05/31 14:48:44;;;;;;;;;;;;;;;44.13;9.25;100182.44;4396129;32;19984;-69
2022/05/31 14:51:31;;;;;;;;;;;;;;;43.71;9.73;100178.75;4395440;32;20288;-70
2022/05/31 14:54:40;;;;;;;;;;;;;;;42.81;9.78;100181.28;4392159;32;20398;-71
2022/05/31 14:57:25;;;;;;;;;;;;;;;41.32;10.95;100183.78;4390649;32;20622;-70
2022/05/31 15:00:20;;;;;;;;;;;;;;;38.53;12.72;100182.59;4379075;32;20010;-70
2022/05/31 15:02:56;;;;;;;;;;;;;;;37.22;14.02;100182.81;4396211;32;20096;-70
2022/05/31 15:05:24;;;;;;;;;;;;;;;34.91;16.98;100198.66;4394607;32;19993;-70
2022/05/31 15:07:52;;;;;;;;;;;;;;;33.14;19.32;100196.09;4393827;32;19981;-70
2022/05/31 15:19:07;;;;;;;;;;;;;;;33.58;19.50;100211.25;4403254;32;20028;-69
2022/05/31 15:21:51;;;;;;;;;;;;;;;32.64;19.34;100201.56;4402188;32;20452;-69